Time;durP1;ratioP1;P1;durP2;ratioP2;P2;SDS_P1;SDS_P2;PMS_P1;PMS_P2;Temp;Humidity;BMP_temperature;BMP_pressure;BME280_temperature;BME280_humidity;BME280_pressure;Samples;Min_cycle;Max_cycle;Signal;HPM_P1;HPM_P2
2023/04/12 00:00:49;;;;;;;;;;;;;;;5.58;100.00;95260.75;10538997;28;1494;-79
2023/04/12 00:05:53;;;;;;;;;;;;;;;5.59;100.00;95251.69;10522983;28;1226;-80
2023/04/12 00:10:57;;;;;;;;;;;;;;;5.60;100.00;95252.53;10522723;28;1910;-79
2023/04/12 00:15:59;;;;;;;;;;;;;;;5.63;100.00;95241.34;10526592;28;1162;-78
2023/04/12 00:21:02;;;;;;;;;;;;;;;5.58;100.00;95227.97;10530846;28;1581;-79
2023/04/12 00:26:05;;;;;;;;;;;;;;;5.63;100.00;95220.81;10536297;28;1147;-79
2023/04/12 00:31:07;;;;;;;;;;;;;;;5.66;100.00;95214.97;10513009;28;1910;-78
2023/04/12 00:36:10;;;;;;;;;;;;;;;5.70;100.00;95209.91;10518965;28;1396;-79
2023/04/12 00:41:13;;;;;;;;;;;;;;;5.66;100.00;95208.81;10553680;28;1460;-78
2023/04/12 00:46:16;;;;;;;;;;;;;;;5.71;100.00;95206.19;10535952;28;1152;-79
2023/04/12 00:51:21;;;;;;;;;;;;;;;5.70;100.00;95199.25;10519093;28;1905;-79
2023/04/12 00:56:25;;;;;;;;;;;;;;;5.69;100.00;95187.78;10508237;28;1113;-79
2023/04/12 01:01:28;;;;;;;;;;;;;;;5.73;100.00;95182.75;10517760;28;1522;-78
2023/04/12 01:06:31;;;;;;;;;;;;;;;5.76;100.00;95176.09;10526309;28;1183;-79
2023/04/12 01:11:34;;;;;;;;;;;;;;;5.78;100.00;95169.44;10515645;28;1906;-78
2023/04/12 01:16:39;;;;;;;;;;;;;;;5.82;100.00;95167.06;10525352;28;1209;-79
2023/04/12 01:21:48;;;;;;;;;;;;;;;5.86;100.00;95162.81;10530908;28;1428;-79
2023/04/12 01:26:51;;;;;;;;;;;;;;;5.87;100.00;95165.22;10527004;28;1147;-79
2023/04/12 01:31:54;;;;;;;;;;;;;;;5.89;100.00;95165.75;10520951;28;1914;-79
2023/04/12 01:36:56;;;;;;;;;;;;;;;6.00;100.00;95156.00;10526213;28;1435;-78
2023/04/12 01:42:00;;;;;;;;;;;;;;;5.95;100.00;95159.41;10532561;28;1522;-78
2023/04/12 01:47:03;;;;;;;;;;;;;;;5.96;100.00;95166.34;10535870;28;1388;-78
2023/04/12 01:52:06;;;;;;;;;;;;;;;5.89;100.00;95162.28;10528504;28;1984;-79
2023/04/12 01:57:09;;;;;;;;;;;;;;;5.82;100.00;95159.06;10531865;28;1427;-80
2023/04/12 02:02:21;;;;;;;;;;;;;;;5.75;100.00;95167.28;10542815;28;1198;-78
2023/04/12 02:07:24;;;;;;;;;;;;;;;5.60;100.00;95170.66;10528522;28;1463;-78
2023/04/12 02:12:26;;;;;;;;;;;;;;;5.53;100.00;95163.94;10543262;28;1890;-77
2023/04/12 02:17:29;;;;;;;;;;;;;;;5.43;100.00;95172.69;10524775;28;1093;-77
2023/04/12 02:22:33;;;;;;;;;;;;;;;5.35;100.00;95165.97;10525734;28;1424;-79
2023/04/12 02:27:35;;;;;;;;;;;;;;;5.20;100.00;95173.81;10530382;28;1215;-77
2023/04/12 02:32:43;;;;;;;;;;;;;;;5.19;100.00;95169.56;10523015;28;1906;-78
2023/04/12 02:37:45;;;;;;;;;;;;;;;5.12;100.00;95177.75;10530954;28;1467;-76
2023/04/12 02:42:48;;;;;;;;;;;;;;;5.02;100.00;95171.53;10516159;28;1467;-77
2023/04/12 02:47:51;;;;;;;;;;;;;;;4.99;100.00;95188.03;10529517;28;1455;-80
2023/04/12 02:52:53;;;;;;;;;;;;;;;4.99;100.00;95177.38;10531013;28;1965;-77
2023/04/12 02:57:57;;;;;;;;;;;;;;;4.94;100.00;95186.13;10528905;28;1538;-77
2023/04/12 03:03:01;;;;;;;;;;;;;;;4.89;100.00;95178.88;10527329;28;1128;-77
2023/04/12 03:08:04;;;;;;;;;;;;;;;4.84;100.00;95164.72;10504774;28;1483;-79
2023/04/12 03:13:07;;;;;;;;;;;;;;;4.91;100.00;95153.88;10518997;28;1918;-78
2023/04/12 03:18:09;;;;;;;;;;;;;;;4.87;100.00;95159.69;10537673;28;1511;-79
2023/04/12 03:23:13;;;;;;;;;;;;;;;4.83;100.00;95147.94;10520036;28;1131;-80
2023/04/12 03:28:15;;;;;;;;;;;;;;;4.81;100.00;95144.72;10523205;28;1436;-79
2023/04/12 03:33:17;;;;;;;;;;;;;;;4.81;100.00;95139.41;10535401;28;1976;-79
2023/04/12 03:38:20;;;;;;;;;;;;;;;4.75;100.00;95139.59;10537200;28;1512;-78
2023/04/12 03:43:26;;;;;;;;;;;;;;;4.77;100.00;95140.97;10506546;28;1499;-80
2023/04/12 03:48:28;;;;;;;;;;;;;;;4.74;100.00;95128.16;10536152;28;1440;-79
2023/04/12 03:53:31;;;;;;;;;;;;;;;4.76;100.00;95131.34;10528011;28;1898;-79
2023/04/12 03:58:33;;;;;;;;;;;;;;;4.70;100.00;95132.38;10528805;28;1163;-79
2023/04/12 04:03:44;;;;;;;;;;;;;;;4.68;100.00;95121.16;10528925;28;1439;-78
2023/04/12 04:08:48;;;;;;;;;;;;;;;4.69;100.00;95109.47;10521581;28;1116;-78
2023/04/12 04:13:53;;;;;;;;;;;;;;;4.60;100.00;95106.47;10536456;28;1909;-81
2023/04/12 04:18:56;;;;;;;;;;;;;;;4.57;100.00;95093.63;10524827;28;1471;-79
2023/04/12 04:23:59;;;;;;;;;;;;;;;4.70;100.00;95094.28;10534037;28;1183;-80
2023/04/12 04:29:03;;;;;;;;;;;;;;;4.66;100.00;95093.22;10526074;28;1519;-80
2023/04/12 04:34:06;;;;;;;;;;;;;;;4.67;100.00;95084.97;10514903;28;1922;-80
2023/04/12 04:39:09;;;;;;;;;;;;;;;4.67;100.00;95086.81;10530550;28;1707;-79
2023/04/12 04:44:13;;;;;;;;;;;;;;;4.72;100.00;95087.66;10534809;28;1637;-80
2023/04/12 04:49:16;;;;;;;;;;;;;;;4.71;100.00;95083.41;10528580;28;1467;-79
2023/04/12 04:54:18;;;;;;;;;;;;;;;4.65;100.00;95081.75;10527226;28;1971;-80
2023/04/12 04:59:22;;;;;;;;;;;;;;;4.67;100.00;95076.97;10525505;28;1504;-81
2023/04/12 05:04:25;;;;;;;;;;;;;;;4.70;100.00;95062.34;10525927;28;1424;-80
2023/04/12 05:09:28;;;;;;;;;;;;;;;4.72;100.00;95066.38;10524773;28;1514;-81
2023/04/12 05:14:30;;;;;;;;;;;;;;;4.73;100.00;95049.34;10516754;28;1906;-80
2023/04/12 05:19:49;;;;;;;;;;;;;;;4.67;100.00;95044.22;10520865;28;1479;-80
2023/04/12 05:24:52;;;;;;;;;;;;;;;4.79;100.00;95050.97;10516984;28;1427;-81
2023/04/12 05:29:55;;;;;;;;;;;;;;;4.89;100.00;95024.41;10533569;28;1451;-80
2023/04/12 05:34:57;;;;;;;;;;;;;;;4.91;100.00;95016.19;10525746;28;1906;-80
2023/04/12 05:40:01;;;;;;;;;;;;;;;4.98;100.00;95015.97;10518796;28;1737;-79
2023/04/12 05:45:03;;;;;;;;;;;;;;;5.08;100.00;95016.00;10521179;28;1092;-79
2023/04/12 05:50:06;;;;;;;;;;;;;;;4.99;100.00;95010.38;10533084;28;1483;-79
2023/04/12 05:55:08;;;;;;;;;;;;;;;5.06;100.00;95002.16;10530514;28;1979;-79
2023/04/12 06:00:15;;;;;;;;;;;;;;;5.00;100.00;94989.88;10526703;28;1411;-79
2023/04/12 06:05:18;;;;;;;;;;;;;;;4.95;100.00;94984.50;10532894;28;2397;-79
2023/04/12 06:10:30;;;;;;;;;;;;;;;5.10;100.00;94982.75;10506434;28;1547;-80
2023/04/12 06:15:36;;;;;;;;;;;;;;;5.22;100.00;94968.44;10517156;28;1910;-79
2023/04/12 06:20:38;;;;;;;;;;;;;;;5.31;100.00;94966.84;10502028;28;1464;-79
2023/04/12 06:25:40;;;;;;;;;;;;;;;5.33;100.00;94970.84;10532240;28;1471;-81
2023/04/12 06:30:43;;;;;;;;;;;;;;;5.49;100.00;94961.06;10525104;28;1118;-78
2023/04/12 06:35:47;;;;;;;;;;;;;;;5.56;100.00;94947.50;10530330;28;1974;-80
2023/04/12 06:40:49;;;;;;;;;;;;;;;5.52;100.00;94941.06;10535823;28;1435;-79
2023/04/12 06:45:52;;;;;;;;;;;;;;;5.57;100.00;94939.22;10553014;28;1131;-78
2023/04/12 06:50:54;;;;;;;;;;;;;;;5.74;100.00;94932.88;10522560;28;1447;-80
2023/04/12 06:55:57;;;;;;;;;;;;;;;5.65;100.00;94929.91;10510008;28;1914;-79
2023/04/12 07:00:59;;;;;;;;;;;;;;;5.76;100.00;94920.06;10535750;28;1451;-81
2023/04/12 07:06:03;;;;;;;;;;;;;;;6.11;100.00;94922.84;10518428;28;1542;-81
2023/04/12 07:11:27;;;;;;;;;;;;;;;6.14;100.00;94910.81;10516267;28;1491;-79
2023/04/12 07:16:29;;;;;;;;;;;;;;;6.27;100.00;94907.63;10533536;28;1948;-81
2023/04/12 07:21:32;;;;;;;;;;;;;;;6.35;100.00;94907.06;10533564;28;1400;-79
2023/04/12 07:26:34;;;;;;;;;;;;;;;6.42;100.00;94904.94;10531046;28;1211;-79
2023/04/12 07:31:37;;;;;;;;;;;;;;;6.46;100.00;94903.34;10513516;28;1503;-79
2023/04/12 07:36:43;;;;;;;;;;;;;;;6.65;100.00;94900.91;10521487;28;1987;-79
2023/04/12 07:41:47;;;;;;;;;;;;;;;6.83;100.00;94888.84;10533568;28;1684;-80
2023/04/12 07:46:49;;;;;;;;;;;;;;;6.97;100.00;94881.84;10538770;28;1139;-80
2023/04/12 07:51:52;;;;;;;;;;;;;;;7.09;100.00;94870.88;10528570;28;1653;-80
2023/04/12 07:56:55;;;;;;;;;;;;;;;7.46;100.00;94866.97;10519364;28;1905;-79
2023/04/12 08:01:58;;;;;;;;;;;;;;;7.44;100.00;94853.03;10517572;28;1123;-80
2023/04/12 08:07:01;;;;;;;;;;;;;;;7.82;100.00;94854.97;10519416;28;1389;-81
2023/04/12 08:12:04;;;;;;;;;;;;;;;7.94;100.00;94845.78;10506911;28;1491;-80
2023/04/12 08:17:07;;;;;;;;;;;;;;;8.11;100.00;94846.97;10524691;28;1984;-81
2023/04/12 08:22:09;;;;;;;;;;;;;;;8.33;100.00;94827.78;10513512;28;1566;-80
2023/04/12 08:27:15;;;;;;;;;;;;;;;8.20;100.00;94811.56;10535008;28;1187;-81
2023/04/12 08:32:19;;;;;;;;;;;;;;;8.02;100.00;94816.56;10529542;28;1523;-81
2023/04/12 08:37:22;;;;;;;;;;;;;;;8.01;100.00;94814.94;10524034;28;1909;-81
2023/04/12 08:42:24;;;;;;;;;;;;;;;7.82;100.00;94797.97;10505020;28;1562;-81
2023/04/12 08:47:27;;;;;;;;;;;;;;;7.70;100.00;94786.81;10510665;28;1140;-82
2023/04/12 08:52:30;;;;;;;;;;;;;;;7.94;100.00;94778.88;10517152;28;1340;-81
2023/04/12 08:57:33;;;;;;;;;;;;;;;8.18;100.00;94766.34;10501780;28;1918;-81
2023/04/12 09:02:35;;;;;;;;;;;;;;;7.88;100.00;94761.25;10521846;28;1467;-80
2023/04/12 09:07:37;;;;;;;;;;;;;;;7.95;100.00;94753.72;10500770;28;1542;-81
2023/04/12 09:12:41;;;;;;;;;;;;;;;8.19;100.00;94745.72;10524559;28;1971;-79
2023/04/12 09:17:43;;;;;;;;;;;;;;;8.60;100.00;94746.91;10533215;28;1443;-81
2023/04/12 09:22:46;;;;;;;;;;;;;;;9.18;100.00;94733.31;10532915;28;1870;-82
2023/04/12 09:27:49;;;;;;;;;;;;;;;9.90;100.00;94727.63;10527987;28;1510;-80
2023/04/12 09:32:54;;;;;;;;;;;;;;;10.10;100.00;94713.06;10525842;28;1909;-81
2023/04/12 09:37:57;;;;;;;;;;;;;;;10.46;100.00;94690.94;10524551;28;1525;-80
2023/04/12 09:42:59;;;;;;;;;;;;;;;10.55;100.00;94683.75;10525629;28;1528;-80
2023/04/12 09:48:02;;;;;;;;;;;;;;;10.58;100.00;94671.63;10529809;28;1167;-79
2023/04/12 09:53:05;;;;;;;;;;;;;;;10.57;100.00;94656.59;10538850;28;1980;-80
2023/04/12 09:58:08;;;;;;;;;;;;;;;10.94;100.00;94639.38;10546094;28;1499;-80
2023/04/12 10:03:10;;;;;;;;;;;;;;;11.67;100.00;94635.50;10521603;28;1132;-80
2023/04/12 10:08:16;;;;;;;;;;;;;;;11.73;100.00;94622.72;10520692;28;1439;-79
2023/04/12 10:13:19;;;;;;;;;;;;;;;12.57;100.00;94622.59;10535063;28;1910;-79
2023/04/12 10:18:23;;;;;;;;;;;;;;;12.19;100.00;94614.25;10523832;28;1479;-79
2023/04/12 10:23:25;;;;;;;;;;;;;;;12.17;100.00;94608.38;10520465;28;1112;-79
2023/04/12 10:28:28;;;;;;;;;;;;;;;12.52;100.00;94593.09;10532175;28;1817;-81
2023/04/12 10:33:40;;;;;;;;;;;;;;;12.77;100.00;94585.38;10524956;28;1968;-81
2023/04/12 10:38:43;;;;;;;;;;;;;;;13.24;100.00;94583.66;10507387;28;1155;-80
2023/04/12 10:43:46;;;;;;;;;;;;;;;13.74;100.00;94572.28;10527279;28;1665;-80
2023/04/12 10:48:48;;;;;;;;;;;;;;;13.99;100.00;94562.50;10534639;28;1459;-80
2023/04/12 10:53:51;;;;;;;;;;;;;;;14.26;100.00;94547.75;10519698;28;1909;-79
2023/04/12 10:58:55;;;;;;;;;;;;;;;14.72;100.00;94546.06;10535154;28;1488;-78
2023/04/12 11:03:57;;;;;;;;;;;;;;;14.15;100.00;94541.13;10536765;28;1120;-78
2023/04/12 11:09:00;;;;;;;;;;;;;;;14.27;100.00;94533.91;10515124;28;1377;-78
2023/04/12 11:14:03;;;;;;;;;;;;;;;13.93;100.00;94528.66;10527265;28;1979;-80
2023/04/12 11:19:05;;;;;;;;;;;;;;;14.25;100.00;94521.84;10540006;28;1520;-80
2023/04/12 11:24:08;;;;;;;;;;;;;;;14.24;100.00;94514.84;10534566;28;1510;-80
2023/04/12 11:29:10;;;;;;;;;;;;;;;14.43;100.00;94514.41;10530191;28;1148;-80
2023/04/12 11:34:12;;;;;;;;;;;;;;;14.46;100.00;94500.25;10519976;28;1972;-80
2023/04/12 11:39:17;;;;;;;;;;;;;;;14.01;100.00;94492.75;10520680;28;1115;-78
2023/04/12 11:44:21;;;;;;;;;;;;;;;14.50;100.00;94496.56;10528124;28;1689;-79
2023/04/12 11:49:24;;;;;;;;;;;;;;;14.60;100.00;94490.00;10519828;28;1375;-78
2023/04/12 11:54:26;;;;;;;;;;;;;;;14.08;100.00;94482.19;10526965;28;1910;-80
2023/04/12 11:59:31;;;;;;;;;;;;;;;14.31;100.00;94485.38;10529153;28;1495;-79
2023/04/12 12:04:33;;;;;;;;;;;;;;;15.09;100.00;94488.31;10522145;28;1104;-80
2023/04/12 12:09:36;;;;;;;;;;;;;;;14.87;100.00;94489.44;10528461;28;1466;-80
2023/04/12 12:14:38;;;;;;;;;;;;;;;15.02;100.00;94493.47;10528021;28;1981;-78
2023/04/12 12:19:41;;;;;;;;;;;;;;;15.25;100.00;94479.53;10515960;28;1495;-80
2023/04/12 12:24:45;;;;;;;;;;;;;;;15.75;100.00;94486.69;10527397;28;1583;-78
2023/04/12 12:29:47;;;;;;;;;;;;;;;15.53;100.00;94475.13;10527772;28;1435;-80
2023/04/12 12:34:50;;;;;;;;;;;;;;;15.50;100.00;94478.47;10503531;28;1977;-81
2023/04/12 12:39:52;;;;;;;;;;;;;;;14.90;100.00;94474.47;10536146;28;1486;-80
2023/04/12 12:44:54;;;;;;;;;;;;;;;15.11;100.00;94460.91;10537136;28;1124;-79
2023/04/12 12:49:57;;;;;;;;;;;;;;;15.78;100.00;94459.72;10531583;28;1412;-78
2023/04/12 12:54:59;;;;;;;;;;;;;;;15.42;100.00;94446.88;10500466;28;2020;-79
2023/04/12 13:00:03;;;;;;;;;;;;;;;15.40;100.00;94447.22;10522129;28;1530;-80
2023/04/12 13:05:06;;;;;;;;;;;;;;;14.63;100.00;94445.25;10496192;28;1796;-79
2023/04/12 13:10:13;;;;;;;;;;;;;;;14.68;100.00;94439.66;10523720;28;1451;-78
2023/04/12 13:15:16;;;;;;;;;;;;;;;14.22;100.00;94438.72;10520603;28;1910;-79
2023/04/12 13:20:26;;;;;;;;;;;;;;;14.46;100.00;94438.88;10514950;28;1558;-78
2023/04/12 13:25:28;;;;;;;;;;;;;;;14.48;100.00;94431.22;10517042;28;1171;-78
2023/04/12 13:30:31;;;;;;;;;;;;;;;14.45;100.00;94426.47;10527833;28;1452;-79
2023/04/12 13:35:34;;;;;;;;;;;;;;;14.20;100.00;94425.53;10535312;28;1981;-79
2023/04/12 13:40:37;;;;;;;;;;;;;;;13.79;100.00;94415.44;10541166;28;1511;-79
2023/04/12 13:45:39;;;;;;;;;;;;;;;14.05;100.00;94418.78;10517282;28;1121;-79
2023/04/12 13:50:42;;;;;;;;;;;;;;;13.41;100.00;94421.66;10514006;28;1435;-78
2023/04/12 13:55:45;;;;;;;;;;;;;;;13.26;100.00;94419.53;10533705;28;1901;-79
2023/04/12 14:00:48;;;;;;;;;;;;;;;13.57;100.00;94413.03;10539489;28;1431;-79
2023/04/12 14:05:50;;;;;;;;;;;;;;;14.15;100.00;94404.09;10541136;28;1558;-79
2023/04/12 14:10:54;;;;;;;;;;;;;;;14.60;100.00;94395.34;10532403;28;1663;-80
2023/04/12 14:15:57;;;;;;;;;;;;;;;14.90;100.00;94393.31;10530338;28;1918;-78
2023/04/12 14:20:59;;;;;;;;;;;;;;;15.31;100.00;94386.94;10519424;28;1451;-77
2023/04/12 14:26:03;;;;;;;;;;;;;;;15.36;100.00;94377.81;10532847;28;1511;-78
2023/04/12 14:31:06;;;;;;;;;;;;;;;15.39;100.00;94366.31;10536554;28;1191;-78
2023/04/12 14:36:08;;;;;;;;;;;;;;;15.34;100.00;94359.22;10524699;28;1971;-78
2023/04/12 14:41:11;;;;;;;;;;;;;;;15.75;100.00;94345.78;10530498;28;1511;-79
2023/04/12 14:46:13;;;;;;;;;;;;;;;15.79;98.96;94344.00;10524422;28;1119;-78
2023/04/12 14:51:16;;;;;;;;;;;;;;;15.57;100.00;94335.16;10534358;28;1514;-81
2023/04/12 14:56:19;;;;;;;;;;;;;;;15.44;99.05;94338.22;10536499;28;1906;-80
2023/04/12 15:01:26;;;;;;;;;;;;;;;15.60;95.36;94325.59;10526485;28;1693;-78
2023/04/12 15:06:32;;;;;;;;;;;;;;;14.93;98.54;94343.94;10514599;28;1541;-80
2023/04/12 15:11:35;;;;;;;;;;;;;;;14.63;100.00;94342.50;10538045;28;1381;-79
2023/04/12 15:16:41;;;;;;;;;;;;;;;13.96;100.00;94339.72;10499030;28;1909;-79
2023/04/12 15:21:45;;;;;;;;;;;;;;;13.84;100.00;94346.97;10520854;28;1464;-81
2023/04/12 15:26:47;;;;;;;;;;;;;;;13.86;100.00;94323.91;10530888;28;1506;-80
2023/04/12 15:31:51;;;;;;;;;;;;;;;13.98;100.00;94326.66;10532698;28;1191;-79
2023/04/12 15:36:53;;;;;;;;;;;;;;;13.74;100.00;94326.50;10512368;28;1978;-80
2023/04/12 15:41:56;;;;;;;;;;;;;;;13.66;100.00;94317.38;10530954;28;1439;-80
2023/04/12 15:46:59;;;;;;;;;;;;;;;13.62;100.00;94321.84;10540380;28;1092;-80
2023/04/12 15:52:14;;;;;;;;;;;;;;;13.35;100.00;94303.44;10528422;28;1579;-81
2023/04/12 15:57:16;;;;;;;;;;;;;;;13.24;100.00;94305.72;10508942;28;1910;-80
2023/04/12 16:02:19;;;;;;;;;;;;;;;13.41;100.00;94315.63;10502047;28;1476;-81
2023/04/12 16:07:29;;;;;;;;;;;;;;;13.56;100.00;94325.06;10536682;28;1451;-81
2023/04/12 16:12:32;;;;;;;;;;;;;;;13.50;100.00;94306.38;10506302;28;1464;-80
2023/04/12 16:17:36;;;;;;;;;;;;;;;13.48;100.00;94315.88;10512662;28;1971;-81
2023/04/12 16:22:38;;;;;;;;;;;;;;;13.55;100.00;94307.28;10526887;28;1736;-81
2023/04/12 16:27:41;;;;;;;;;;;;;;;13.55;100.00;94312.66;10527386;28;1412;-80
2023/04/12 16:32:43;;;;;;;;;;;;;;;13.39;100.00;94313.25;10528412;28;1084;-80
2023/04/12 16:37:46;;;;;;;;;;;;;;;13.24;100.00;94314.63;10530190;28;1910;-80
2023/04/12 16:42:50;;;;;;;;;;;;;;;13.16;100.00;94309.22;10526862;28;1506;-78
2023/04/12 16:47:53;;;;;;;;;;;;;;;13.06;100.00;94301.50;10520210;28;1092;-81
2023/04/12 16:52:57;;;;;;;;;;;;;;;12.86;100.00;94287.63;10527766;28;1560;-80
2023/04/12 16:57:59;;;;;;;;;;;;;;;12.77;100.00;94297.63;10529128;28;1980;-81
2023/04/12 17:03:02;;;;;;;;;;;;;;;12.84;100.00;94289.84;10533408;28;1143;-80
2023/04/12 17:08:08;;;;;;;;;;;;;;;12.79;100.00;94287.34;10526265;28;1424;-81
2023/04/12 17:13:10;;;;;;;;;;;;;;;12.74;100.00;94274.03;10515006;28;1531;-79
2023/04/12 17:18:13;;;;;;;;;;;;;;;12.64;100.00;94285.16;10515117;28;1913;-80
2023/04/12 17:23:15;;;;;;;;;;;;;;;12.58;100.00;94283.75;10515845;28;1705;-80
2023/04/12 17:28:18;;;;;;;;;;;;;;;12.53;100.00;94286.59;10521342;28;1448;-80
2023/04/12 17:33:21;;;;;;;;;;;;;;;12.28;100.00;94280.16;10524281;28;1558;-81
2023/04/12 17:38:23;;;;;;;;;;;;;;;11.77;100.00;94290.66;10533621;28;2006;-79
2023/04/12 17:43:27;;;;;;;;;;;;;;;11.38;100.00;94278.91;10517968;28;1550;-81
2023/04/12 17:48:29;;;;;;;;;;;;;;;11.22;100.00;94279.69;10526093;28;1376;-81
2023/04/12 17:53:32;;;;;;;;;;;;;;;11.14;100.00;94278.56;10517772;28;1235;-80
2023/04/12 17:58:34;;;;;;;;;;;;;;;11.16;100.00;94280.94;10525697;28;1973;-80
2023/04/12 18:03:38;;;;;;;;;;;;;;;11.15;100.00;94290.91;10527114;28;1013;-79
2023/04/12 18:08:40;;;;;;;;;;;;;;;11.31;100.00;94300.09;10534628;28;1458;-81
2023/04/12 18:13:43;;;;;;;;;;;;;;;11.32;100.00;94307.09;10522296;28;1559;-81
2023/04/12 18:18:46;;;;;;;;;;;;;;;11.19;100.00;94313.38;10535116;28;1922;-79
2023/04/12 18:23:48;;;;;;;;;;;;;;;10.77;100.00;94318.28;10522173;28;1765;-78
2023/04/12 18:28:51;;;;;;;;;;;;;;;10.38;100.00;94339.75;10526067;28;1475;-80
2023/04/12 18:33:54;;;;;;;;;;;;;;;10.14;100.00;94351.56;10534853;28;1541;-79
2023/04/12 18:38:57;;;;;;;;;;;;;;;9.89;100.00;94368.25;10525270;28;1926;-79
2023/04/12 18:44:00;;;;;;;;;;;;;;;9.56;100.00;94389.91;10527320;28;1701;-81
2023/04/12 18:49:04;;;;;;;;;;;;;;;9.39;100.00;94401.22;10531587;28;1415;-82
2023/04/12 18:54:11;;;;;;;;;;;;;;;9.23;100.00;94425.97;10549107;28;1005;-85
2023/04/12 18:59:16;;;;;;;;;;;;;;;9.12;100.00;94447.59;10543621;28;1914;-83
2023/04/12 19:04:19;;;;;;;;;;;;;;;9.00;100.00;94452.66;10527680;28;1140;-80
2023/04/12 19:09:22;;;;;;;;;;;;;;;8.89;100.00;94446.66;10531739;28;1487;-80
2023/04/12 19:14:29;;;;;;;;;;;;;;;8.85;100.00;94450.25;10535681;28;1016;-83
2023/04/12 19:19:32;;;;;;;;;;;;;;;8.71;100.00;94454.75;10535232;28;1910;-81
2023/04/12 19:24:36;;;;;;;;;;;;;;;8.68;100.00;94458.03;10523625;28;1243;-80
2023/04/12 19:29:38;;;;;;;;;;;;;;;8.56;100.00;94459.28;10520919;28;1436;-82
2023/04/12 19:34:41;;;;;;;;;;;;;;;8.53;100.00;94461.78;10538182;28;1505;-83
2023/04/12 19:39:43;;;;;;;;;;;;;;;8.53;100.00;94451.84;10521611;28;1906;-82
2023/04/12 19:44:47;;;;;;;;;;;;;;;8.50;100.00;94473.06;10521366;28;1257;-81
2023/04/12 19:49:50;;;;;;;;;;;;;;;8.46;100.00;94472.84;10520791;28;1384;-80
2023/04/12 19:54:55;;;;;;;;;;;;;;;8.44;100.00;94479.56;10540535;28;1502;-81
2023/04/12 19:59:59;;;;;;;;;;;;;;;8.40;100.00;94476.69;10530089;28;1988;-81
2023/04/12 20:05:02;;;;;;;;;;;;;;;8.35;100.00;94482.91;10518535;28;1647;-79
2023/04/12 20:10:05;;;;;;;;;;;;;;;8.34;100.00;94492.00;10529436;28;1467;-80
2023/04/12 20:15:08;;;;;;;;;;;;;;;8.30;100.00;94495.53;10520747;28;1085;-81
2023/04/12 20:20:12;;;;;;;;;;;;;;;8.25;100.00;94498.28;10515990;28;1915;-80
2023/04/12 20:25:15;;;;;;;;;;;;;;;8.19;100.00;94499.44;10540186;28;1147;-79
2023/04/12 20:30:19;;;;;;;;;;;;;;;8.18;100.00;94501.34;10521918;28;1437;-79
2023/04/12 20:35:21;;;;;;;;;;;;;;;8.23;100.00;94505.81;10517927;28;1527;-79
2023/04/12 20:40:26;;;;;;;;;;;;;;;8.17;100.00;94510.44;10530145;28;1914;-80
2023/04/12 20:45:29;;;;;;;;;;;;;;;8.11;100.00;94520.44;10534652;28;1350;-79
2023/04/12 20:50:32;;;;;;;;;;;;;;;7.90;100.00;94519.09;10534447;28;1451;-80
2023/04/12 20:55:35;;;;;;;;;;;;;;;7.79;100.00;94528.34;10519178;28;1155;-81
2023/04/12 21:00:37;;;;;;;;;;;;;;;7.73;100.00;94532.16;10510138;28;1921;-81
2023/04/12 21:05:40;;;;;;;;;;;;;;;7.69;100.00;94539.16;10526766;28;1186;-80
2023/04/12 21:10:43;;;;;;;;;;;;;;;7.54;100.00;94564.19;10527014;28;1724;-81
2023/04/12 21:15:47;;;;;;;;;;;;;;;7.51;100.00;94570.13;10530890;28;1178;-79
2023/04/12 21:20:50;;;;;;;;;;;;;;;7.36;100.00;94573.72;10527533;28;1487;-78
2023/04/12 21:25:53;;;;;;;;;;;;;;;7.38;100.00;94582.28;10525594;28;1515;-80
2023/04/12 21:30:57;;;;;;;;;;;;;;;7.36;100.00;94595.09;10500694;28;1455;-81
2023/04/12 21:36:00;;;;;;;;;;;;;;;7.44;100.00;94596.38;10533155;28;1903;-80
2023/04/12 21:41:04;;;;;;;;;;;;;;;7.33;100.00;94609.06;10510272;28;1439;-79
2023/04/12 21:46:07;;;;;;;;;;;;;;;7.37;100.00;94612.72;10526307;28;1167;-79
2023/04/12 21:51:11;;;;;;;;;;;;;;;7.36;100.00;94621.03;10517570;28;1492;-81
2023/04/12 21:56:14;;;;;;;;;;;;;;;7.35;100.00;94627.47;10538481;28;1902;-81
2023/04/12 22:01:18;;;;;;;;;;;;;;;7.15;100.00;94637.25;10525770;28;1213;-81
2023/04/12 22:06:20;;;;;;;;;;;;;;;7.10;100.00;94631.16;10541652;28;1546;-80
2023/04/12 22:11:24;;;;;;;;;;;;;;;7.09;100.00;94642.91;10535959;28;1476;-80
2023/04/12 22:16:28;;;;;;;;;;;;;;;6.93;100.00;94591.47;10528851;28;1906;-79
2023/04/12 22:21:32;;;;;;;;;;;;;;;6.97;100.00;94608.53;10540318;28;1534;-82
2023/04/12 22:26:35;;;;;;;;;;;;;;;6.97;100.00;94616.56;10541416;28;1527;-79
2023/04/12 22:31:38;;;;;;;;;;;;;;;6.90;100.00;94611.53;10524557;28;1005;-79
2023/04/12 22:36:41;;;;;;;;;;;;;;;6.98;100.00;94613.59;10523039;28;1930;-82
2023/04/12 22:41:47;;;;;;;;;;;;;;;6.93;100.00;94623.53;10543484;28;1689;-81
2023/04/12 22:46:50;;;;;;;;;;;;;;;6.92;100.00;94621.94;10524642;28;1206;-81
2023/04/12 22:51:52;;;;;;;;;;;;;;;6.89;100.00;94636.66;10531997;28;1716;-80
2023/04/12 22:56:55;;;;;;;;;;;;;;;6.83;100.00;94629.75;10523213;28;1938;-81
2023/04/12 23:01:58;;;;;;;;;;;;;;;6.82;100.00;94622.81;10519458;28;1674;-81
2023/04/12 23:07:11;;;;;;;;;;;;;;;6.83;100.00;94629.75;10526892;28;1475;-81
2023/04/12 23:12:14;;;;;;;;;;;;;;;6.80;100.00;94624.94;10522880;28;1444;-82
2023/04/12 23:17:18;;;;;;;;;;;;;;;6.83;100.00;94619.06;10534586;28;1976;-81
2023/04/12 23:22:34;;;;;;;;;;;;;;;6.83;100.00;94623.59;10537795;28;1472;-80
2023/04/12 23:27:57;;;;;;;;;;;;;;;6.83;100.00;94605.72;10522250;28;1115;-80
2023/04/12 23:33:00;;;;;;;;;;;;;;;6.76;100.00;94594.53;10521862;28;1446;-79
2023/04/12 23:38:03;;;;;;;;;;;;;;;6.77;100.00;94585.44;10522635;28;1909;-79
2023/04/12 23:43:07;;;;;;;;;;;;;;;6.74;100.00;94594.00;10519484;28;1463;-79
2023/04/12 23:48:10;;;;;;;;;;;;;;;6.80;100.00;94592.88;10521966;28;1096;-80
2023/04/12 23:53:13;;;;;;;;;;;;;;;6.73;100.00;94598.53;10528311;28;1426;-80
2023/04/12 23:58:16;;;;;;;;;;;;;;;6.75;100.00;94608.97;10531987;28;1918;-79
